Time;durP1;ratioP1;P1;durP2;ratioP2;P2;SDS_P1;SDS_P2;PMS_P1;PMS_P2;Temp;Humidity;BMP_temperature;BMP_pressure;BME280_temperature;BME280_humidity;BME280_pressure;Samples;Min_cycle;Max_cycle;Signal;HPM_P1;HPM_P2
2022/01/09 18:31:51;;;;;;;116.20;49.90;;;;;;;-0.78;80.23;99390.92;1853010;75;28232;-71
2022/01/09 18:34:17;;;;;;;118.77;51.10;;;;;;;-0.81;80.23;99398.99;1808477;77;21670;-70
2022/01/09 18:36:43;;;;;;;106.52;48.83;;;;;;;-0.80;80.25;99398.05;1812131;78;21108;-69
2022/01/09 18:39:14;;;;;;;87.67;41.00;;;;;;;-0.79;80.26;99395.80;1815277;77;21011;-70
2022/01/09 18:41:37;;;;;;;112.88;48.65;;;;;;;-0.76;80.29;99399.47;1768460;79;21564;-70
2022/01/09 18:44:04;;;;;;;100.80;44.63;;;;;;;-0.72;80.34;99400.06;1776171;79;21076;-68
2022/01/09 18:46:30;;;;;;;98.55;44.75;;;;;;;-0.69;80.39;99405.87;1776604;79;21062;-70
2022/01/09 18:48:57;;;;;;;91.40;42.40;;;;;;;-0.63;80.50;99404.54;1774444;79;21116;-71
2022/01/09 18:51:23;;;;;;;85.10;40.28;;;;;;;-0.57;80.60;99403.59;1778572;79;21133;-70
2022/01/09 18:53:49;;;;;;;101.90;47.50;;;;;;;-0.51;80.69;99404.88;1778205;79;21506;-70
2022/01/09 18:56:16;;;;;;;100.00;46.50;;;;;;;-0.45;80.79;99411.38;1746890;81;21508;-70
2022/01/09 18:58:44;;;;;;;105.63;50.08;;;;;;;-0.45;80.88;99414.00;1766226;79;21020;-71
2022/01/09 19:01:10;;;;;;;112.03;51.53;;;;;;;-0.43;80.97;99422.58;1739071;80;21143;-70
2022/01/09 19:03:36;;;;;;;109.12;45.90;;;;;;;-0.39;81.09;99419.59;1768350;79;21490;-70
2022/01/09 19:06:02;;;;;;;114.20;49.05;;;;;;;-0.35;81.17;99423.61;1773232;79;21009;-71
2022/01/09 19:08:29;;;;;;;111.50;51.08;;;;;;;-0.29;81.30;99423.60;1769842;79;21677;-71
2022/01/09 19:10:55;;;;;;;104.17;48.02;;;;;;;-0.23;81.41;99429.64;1771301;79;21084;-70
2022/01/09 19:13:22;;;;;;;117.70;53.20;;;;;;;-0.24;81.51;99427.97;1771391;79;21480;-71
2022/01/09 19:15:50;;;;;;;137.03;62.33;;;;;;;-0.28;81.63;99433.13;1771140;79;21684;-70
2022/01/09 19:18:16;;;;;;;130.35;61.50;;;;;;;-0.25;81.70;99438.95;1773801;79;21093;-70
2022/01/09 19:20:42;;;;;;;143.15;65.57;;;;;;;-0.26;81.77;99444.30;1767679;80;20882;-70
2022/01/09 19:23:08;;;;;;;137.43;58.08;;;;;;;-0.32;81.82;99452.67;1770680;79;20992;-71
2022/01/09 19:25:35;;;;;;;141.85;60.95;;;;;;;-0.38;81.88;99452.67;1720139;80;21161;-70
2022/01/09 19:28:01;;;;;;;138.60;58.92;;;;;;;-0.45;81.94;99455.90;1742355;81;21502;-71
2022/01/09 19:30:27;;;;;;;96.90;42.13;;;;;;;-0.52;81.98;99455.56;1739190;81;21577;-71
2022/01/09 19:32:54;;;;;;;105.47;41.37;;;;;;;-0.57;82.01;99452.50;1774294;79;21554;-71
2022/01/09 19:35:20;;;;;;;89.80;38.90;;;;;;;-0.60;82.04;99456.68;1739676;80;21534;-71
2022/01/09 19:37:46;;;;;;;105.40;43.60;;;;;;;-0.62;82.07;99457.27;1775825;79;21116;-70
2022/01/09 19:40:14;;;;;;;92.57;40.08;;;;;;;-0.62;82.12;99462.02;1776642;79;21056;-71
2022/01/09 19:42:40;;;;;;;145.53;54.88;;;;;;;-0.60;82.16;99458.80;1770601;79;21068;-70
2022/01/09 19:45:08;;;;;;;145.10;54.38;;;;;;;-0.56;82.22;99467.23;1766909;79;21569;-70
2022/01/09 19:47:36;;;;;;;126.33;53.33;;;;;;;-0.53;82.28;99467.82;1729798;81;21034;-70
2022/01/09 19:50:06;;;;;;;106.27;47.48;;;;;;;-0.49;82.32;99475.45;1779169;79;21151;-70
2022/01/09 19:52:34;;;;;;;120.87;49.10;;;;;;;-0.42;82.36;99478.75;1777114;79;21544;-70
2022/01/09 19:55:02;;;;;;;114.57;46.60;;;;;;;-0.44;82.40;99481.14;1769394;79;21069;-71
2022/01/09 19:57:28;;;;;;;106.80;46.08;;;;;;;-0.46;82.44;99480.45;1769371;79;21684;-71
2022/01/09 19:59:53;;;;;;;92.02;40.38;;;;;;;-0.52;82.45;99482.59;1769899;80;21013;-70
2022/01/09 20:02:21;;;;;;;93.95;40.03;;;;;;;-0.57;82.46;99492.61;1763081;80;21930;-70
2022/01/09 20:04:47;;;;;;;108.75;50.45;;;;;;;-0.58;82.48;99492.72;1773645;79;21034;-70
2022/01/09 20:07:13;;;;;;;88.47;43.30;;;;;;;-0.59;82.50;99494.97;1782463;79;21072;-70
2022/01/09 20:09:40;;;;;;;83.40;38.25;;;;;;;-0.60;82.54;99496.75;1772311;79;21021;-70
2022/01/09 20:12:06;;;;;;;95.38;43.78;;;;;;;-0.61;82.55;99497.73;1750917;80;21006;-70
2022/01/09 20:14:32;;;;;;;93.35;41.45;;;;;;;-0.61;82.55;99500.82;1765757;80;22199;-69
2022/01/09 20:16:59;;;;;;;99.60;44.55;;;;;;;-0.64;82.58;99501.91;1779944;79;20999;-69
2022/01/09 20:19:25;;;;;;;125.42;59.70;;;;;;;-0.62;82.58;99505.70;1764608;80;21367;-69
2022/01/09 20:21:52;;;;;;;100.67;48.75;;;;;;;-0.60;82.61;99511.16;1778758;79;21048;-69
2022/01/09 20:24:19;;;;;;;107.45;48.95;;;;;;;-0.62;82.63;99511.77;1749987;81;21514;-69
2022/01/09 20:26:47;;;;;;;99.10;46.48;;;;;;;-0.59;82.68;99524.61;1768563;79;21147;-69
2022/01/09 20:29:15;;;;;;;123.00;54.50;;;;;;;-0.59;82.70;99528.53;1780210;79;21108;-70
2022/01/09 20:31:41;;;;;;;112.45;51.48;;;;;;;-0.59;82.71;99530.31;1751683;80;21079;-70
2022/01/09 20:34:08;;;;;;;122.40;54.33;;;;;;;-0.63;82.71;99536.27;1745520;81;21061;-70
2022/01/09 20:36:35;;;;;;;159.72;66.20;;;;;;;-0.65;82.70;99536.88;1752221;80;21002;-70
2022/01/09 20:39:04;;;;;;;137.62;58.83;;;;;;;-0.68;82.70;99541.05;1755442;80;21139;-70
2022/01/09 20:41:30;;;;;;;118.00;51.08;;;;;;;-0.68;82.70;99546.76;1722488;81;21067;-70
2022/01/09 20:43:56;;;;;;;108.92;46.45;;;;;;;-0.68;82.70;99552.84;1749596;80;21003;-70
2022/01/09 20:46:23;;;;;;;113.17;50.75;;;;;;;-0.66;82.70;99553.53;1760394;79;20994;-69
2022/01/09 20:48:49;;;;;;;116.65;51.53;;;;;;;-0.60;82.71;99553.05;1736393;80;21622;-70
2022/01/09 20:51:17;;;;;;;112.37;51.63;;;;;;;-0.57;82.73;99558.06;1752382;81;21954;-70
2022/01/09 20:53:43;;;;;;;118.75;54.10;;;;;;;-0.58;82.73;99562.94;1751672;81;21026;-70
2022/01/09 20:56:09;;;;;;;132.78;72.10;;;;;;;-0.59;82.75;99570.43;1753344;79;21540;-70
2022/01/09 20:58:35;;;;;;;122.92;59.67;;;;;;;-0.60;82.76;99568.75;1758784;79;20986;-71
2022/01/09 21:01:01;;;;;;;142.47;68.12;;;;;;;-0.60;82.76;99575.30;1760518;79;21023;-70
2022/01/09 21:03:28;;;;;;;286.18;141.45;;;;;;;-0.59;82.78;99578.28;1749537;81;21155;-70
2022/01/09 21:05:54;;;;;;;125.62;59.75;;;;;;;-0.60;82.77;99581.84;1757749;79;21494;-70
2022/01/09 21:08:20;;;;;;;123.00;59.25;;;;;;;-0.60;82.77;99587.08;1753233;81;20986;-70
2022/01/09 21:10:47;;;;;;;108.87;47.67;;;;;;;-0.59;82.76;99590.53;1752428;81;20999;-70
2022/01/09 21:13:13;;;;;;;99.52;43.30;;;;;;;-0.60;82.76;99596.24;1753405;80;21093;-70
2022/01/09 21:15:39;;;;;;;93.37;44.85;;;;;;;-0.60;82.75;99598.86;1761316;79;21139;-70
2022/01/09 21:18:06;;;;;;;83.07;40.55;;;;;;;-0.58;82.73;99606.14;1757377;79;21177;-70
2022/01/09 21:20:37;;;;;;;95.72;44.58;;;;;;;-0.55;82.75;99603.28;1751357;81;21018;-70
2022/01/09 21:23:03;;;;;;;90.50;41.30;;;;;;;-0.49;82.75;99607.70;1745378;81;21039;-70
2022/01/09 21:25:30;;;;;;;108.42;49.33;;;;;;;-0.42;82.74;99613.61;1764537;79;21023;-70
2022/01/09 21:27:59;;;;;;;102.75;47.23;;;;;;;-0.43;82.72;99612.45;1768214;81;21775;-70
2022/01/09 21:30:25;;;;;;;115.32;48.87;;;;;;;-0.42;82.73;99623.28;1752667;79;21015;-70
2022/01/09 21:32:51;;;;;;;117.40;49.10;;;;;;;-0.41;82.74;99627.55;1770766;80;21022;-70
2022/01/09 21:35:17;;;;;;;142.05;53.87;;;;;;;-0.41;82.74;99630.17;1768872;80;21050;-70
2022/01/09 21:37:43;;;;;;;389.68;121.05;;;;;;;-0.39;82.76;99629.12;1774167;79;20955;-69
2022/01/09 21:40:11;;;;;;;374.50;115.52;;;;;;;-0.38;82.73;99639.09;1764600;80;21167;-70
2022/01/09 21:42:37;;;;;;;249.62;81.32;;;;;;;-0.41;82.72;99636.72;1772715;79;21067;-70
2022/01/09 21:45:04;;;;;;;271.10;89.42;;;;;;;-0.43;82.71;99634.23;1748574;81;21073;-70
2022/01/09 21:47:30;;;;;;;100.90;45.83;;;;;;;-0.39;82.72;99638.75;1739027;81;21024;-70
2022/01/09 21:49:56;;;;;;;90.12;40.43;;;;;;;-0.39;82.71;99640.91;1771196;79;21049;-69
2022/01/09 21:52:22;;;;;;;103.65;45.08;;;;;;;-0.40;82.70;99648.39;1762824;80;21156;-69
2022/01/09 21:54:48;;;;;;;102.42;45.73;;;;;;;-0.41;82.68;99643.27;1767060;80;21001;-70
2022/01/09 21:57:14;;;;;;;101.50;44.93;;;;;;;-0.42;82.65;99642.93;1751871;81;21092;-70
2022/01/09 21:59:40;;;;;;;105.32;48.00;;;;;;;-0.43;82.64;99645.18;1754216;81;20965;-70
2022/01/09 22:02:06;;;;;;;109.83;45.33;;;;;;;-0.44;82.61;99647.43;1743706;80;21035;-69
2022/01/09 22:04:36;;;;;;;99.42;43.38;;;;;;;-0.42;82.60;99652.09;1768423;80;21156;-70
2022/01/09 22:07:00;;;;;;;110.97;50.92;;;;;;;-0.43;82.59;99664.82;1766886;79;20990;-70
2022/01/09 22:09:26;;;;;;;140.40;58.90;;;;;;;-0.44;82.61;99667.08;1767963;79;20917;-70
2022/01/09 22:11:56;;;;;;;112.37;46.55;;;;;;;-0.41;82.64;99666.83;1741659;80;21030;-70
2022/01/09 22:14:20;;;;;;;96.92;45.92;;;;;;;-0.34;82.65;99675.88;1770176;79;20980;-70
2022/01/09 22:16:46;;;;;;;110.45;50.40;;;;;;;-0.37;82.66;99680.89;1763815;80;21040;-69
2022/01/09 22:19:12;;;;;;;106.95;47.62;;;;;;;-0.37;82.66;99677.44;1765570;80;20982;-70
2022/01/09 22:21:40;;;;;;;109.75;48.23;;;;;;;-0.33;82.67;99678.88;1778962;79;21013;-69
2022/01/09 22:24:08;;;;;;;104.10;48.58;;;;;;;-0.31;82.67;99683.50;1772822;79;21487;-70
2022/01/09 22:26:37;;;;;;;118.30;50.85;;;;;;;-0.31;82.66;99683.50;1745236;81;21007;-70
2022/01/09 22:29:03;;;;;;;103.30;45.15;;;;;;;-0.31;82.64;99683.50;1747736;80;21162;-69
2022/01/09 22:31:30;;;;;;;101.85;47.93;;;;;;;-0.33;82.62;99694.11;1745498;80;21502;-70
2022/01/09 22:33:56;;;;;;;104.43;47.20;;;;;;;-0.34;82.63;99696.84;1753298;81;21057;-70
2022/01/09 22:36:24;;;;;;;114.12;49.27;;;;;;;-0.35;82.62;99695.19;1751715;80;20888;-70
2022/01/09 22:38:50;;;;;;;109.03;47.10;;;;;;;-0.33;82.64;99696.73;1754037;81;21495;-70
2022/01/09 22:41:16;;;;;;;110.17;49.20;;;;;;;-0.25;82.64;99693.52;1774703;79;21707;-70
2022/01/09 22:43:43;;;;;;;107.87;49.90;;;;;;;-0.16;82.61;99705.90;1765269;80;21527;-70
2022/01/09 22:46:09;;;;;;;104.35;47.30;;;;;;;-0.11;82.62;99704.61;1772747;79;20981;-70
2022/01/09 22:48:35;;;;;;;106.17;46.05;;;;;;;-0.05;82.62;99713.29;1742056;80;21015;-70
2022/01/09 22:51:01;;;;;;;103.45;46.73;;;;;;;-0.01;82.61;99716.50;1743937;80;20996;-69
2022/01/09 22:53:27;;;;;;;98.82;45.70;;;;;;;0.00;82.63;99717.67;1745465;80;21176;-69
2022/01/09 22:55:53;;;;;;;109.30;47.60;;;;;;;0.02;82.61;99723.28;1740767;80;20993;-70
2022/01/09 22:58:19;;;;;;;96.85;44.15;;;;;;;0.05;82.60;99722.56;1754715;80;21060;-69
2022/01/09 23:00:47;;;;;;;98.62;46.28;;;;;;;0.03;82.60;99727.11;1767329;79;21525;-69
2022/01/09 23:03:14;;;;;;;86.42;41.92;;;;;;;0.04;82.59;99735.78;1776734;79;21452;-69
2022/01/09 23:05:41;;;;;;;90.10;39.73;;;;;;;0.04;82.57;99730.06;1770618;79;21229;-69
2022/01/09 23:08:07;;;;;;;86.80;38.10;;;;;;;0.08;82.54;99725.42;1772679;79;21062;-69
2022/01/09 23:10:34;;;;;;;82.45;37.78;;;;;;;0.11;82.51;99727.32;1763122;79;21531;-70
2022/01/09 23:13:01;;;;;;;79.45;36.48;;;;;;;0.15;82.49;99739.23;1765505;80;21011;-70
2022/01/09 23:15:27;;;;;;;79.62;38.02;;;;;;;0.19;82.48;99737.21;1751899;80;21065;-69
2022/01/09 23:17:53;;;;;;;80.32;38.23;;;;;;;0.23;82.49;99741.27;1776978;80;21922;-70
2022/01/09 23:20:20;;;;;;;80.40;37.73;;;;;;;0.28;82.46;99747.80;1757747;80;21021;-70
2022/01/09 23:22:48;;;;;;;87.65;40.75;;;;;;;0.32;82.48;99751.85;1735383;82;21545;-70
2022/01/09 23:25:16;;;;;;;83.78;38.58;;;;;;;0.36;82.48;99757.69;1744396;81;21620;-70
2022/01/09 23:27:41;;;;;;;79.67;37.93;;;;;;;0.36;82.48;99761.15;1770167;81;20974;-70
2022/01/09 23:30:08;;;;;;;90.42;40.83;;;;;;;0.40;82.48;99766.52;1770064;81;21158;-69
2022/01/09 23:32:34;;;;;;;85.22;39.85;;;;;;;0.41;82.45;99768.66;1766002;81;21036;-70
2022/01/09 23:35:00;;;;;;;92.37;40.58;;;;;;;0.41;82.47;99777.37;1763923;81;21014;-70
2022/01/09 23:37:31;;;;;;;107.03;45.48;;;;;;;0.42;82.45;99776.39;1763569;81;21097;-70
2022/01/09 23:39:59;;;;;;;116.37;46.10;;;;;;;0.43;82.44;99782.47;1761133;81;21071;-70
2022/01/09 23:42:26;;;;;;;118.55;47.83;;;;;;;0.41;82.43;99785.23;1763496;81;21626;-70
2022/01/09 23:44:54;;;;;;;104.55;43.60;;;;;;;0.42;82.43;99783.45;1763579;81;20980;-70
2022/01/09 23:47:23;;;;;;;88.87;40.10;;;;;;;0.42;82.41;99789.50;1763282;81;21054;-70
2022/01/09 23:52:32;;;;;;;85.80;36.70;;;;;;;0.43;82.41;99791.18;1763047;81;21027;-70
2022/01/09 23:54:58;;;;;;;87.80;40.95;;;;;;;0.52;82.40;99792.26;1750682;81;21102;-70
2022/01/09 23:57:24;;;;;;;86.10;39.83;;;;;;;0.60;82.38;99792.46;1733628;82;21053;-70
2022/01/09 23:59:50;;;;;;;89.28;42.30;;;;;;;0.62;82.40;99794.98;1717908;82;21518;-70
